createdAt,value
2017-08-04T00:00:17.200Z,1006.19
2017-08-04T00:00:57.740Z,1006.18
2017-08-04T00:01:38.281Z,1006.22
2017-08-04T00:02:18.814Z,1006.21
2017-08-04T00:02:59.344Z,1006.21
2017-08-04T00:03:39.889Z,1006.21
2017-08-04T00:04:20.504Z,1006.25
2017-08-04T00:05:01.020Z,1006.29
2017-08-04T00:05:41.556Z,1006.27
2017-08-04T00:06:22.097Z,1006.28
2017-08-04T00:07:02.635Z,1006.26
2017-08-04T00:07:43.169Z,1006.23
2017-08-04T00:08:23.709Z,1006.22
2017-08-04T00:09:04.242Z,1006.23
2017-08-04T00:09:44.769Z,1006.25
2017-08-04T00:10:25.311Z,1006.25
2017-08-04T00:11:05.835Z,1006.27
2017-08-04T00:11:46.380Z,1006.22
2017-08-04T00:12:26.911Z,1006.21
2017-08-04T00:13:07.455Z,1006.22
2017-08-04T00:13:47.979Z,1006.22
2017-08-04T00:14:28.524Z,1006.21
2017-08-04T00:15:09.056Z,1006.26
2017-08-04T00:15:49.607Z,1006.24
2017-08-04T00:16:30.138Z,1006.24
2017-08-04T00:17:10.676Z,1006.26
2017-08-04T00:17:51.216Z,1006.24
2017-08-04T00:18:31.750Z,1006.24
2017-08-04T00:19:12.300Z,1006.21
2017-08-04T00:19:52.834Z,1006.22
2017-08-04T00:20:33.367Z,1006.21
2017-08-04T00:21:13.912Z,1006.22
2017-08-04T00:21:54.449Z,1006.23
2017-08-04T00:22:34.988Z,1006.21
2017-08-04T00:23:15.530Z,1006.24
2017-08-04T00:23:56.072Z,1006.2
2017-08-04T00:24:36.612Z,1006.2
2017-08-04T00:25:17.150Z,1006.19
2017-08-04T00:25:57.690Z,1006.16
2017-08-04T00:26:38.229Z,1006.14
2017-08-04T00:27:18.768Z,1006.16
2017-08-04T00:27:59.307Z,1006.17
2017-08-04T00:28:39.854Z,1006.19
2017-08-04T00:29:20.399Z,1006.15
2017-08-04T00:30:00.933Z,1006.18
2017-08-04T00:30:41.477Z,1006.14
2017-08-04T00:31:22.014Z,1006.16
2017-08-04T00:32:02.537Z,1006.11
2017-08-04T00:32:43.074Z,1006.14
2017-08-04T00:33:23.621Z,1006.14
2017-08-04T00:34:04.152Z,1006.12
2017-08-04T00:34:44.708Z,1006.12
2017-08-04T00:35:25.253Z,1006.09
2017-08-04T00:36:05.793Z,1006.05
2017-08-04T00:36:46.334Z,1006.04
2017-08-04T00:37:26.871Z,1006.04
2017-08-04T00:38:07.413Z,1006.04
2017-08-04T00:38:47.951Z,1006.07
2017-08-04T00:39:28.501Z,1006.05
2017-08-04T00:40:09.042Z,1006.07
2017-08-04T00:40:49.580Z,1006.08
2017-08-04T00:41:30.124Z,1006.08
2017-08-04T00:42:10.654Z,1006.09
2017-08-04T00:42:51.209Z,1006.09
2017-08-04T00:43:31.698Z,1006.07
2017-08-04T00:44:12.234Z,1006.05
2017-08-04T00:44:52.770Z,1006.1
2017-08-04T00:45:33.300Z,1006.08
2017-08-04T00:46:13.842Z,1006.05
2017-08-04T00:48:12.982Z,1006.05
2017-08-04T00:48:53.530Z,1006.06
2017-08-04T00:49:34.066Z,1006.05
2017-08-04T00:50:14.608Z,1006.07
2017-08-04T00:50:55.149Z,1006.08
2017-08-04T00:51:35.687Z,1006.11
2017-08-04T00:52:16.212Z,1006.14
2017-08-04T00:52:56.743Z,1006.09
2017-08-04T00:53:37.272Z,1006.09
2017-08-04T00:54:17.808Z,1006.08
2017-08-04T00:54:58.339Z,1006.07
2017-08-04T00:55:38.857Z,1006.11
2017-08-04T00:56:19.386Z,1006.1
2017-08-04T00:56:59.925Z,1006.12
2017-08-04T00:57:40.457Z,1006.09
2017-08-04T00:58:20.996Z,1006.11
2017-08-04T00:59:01.528Z,1006.09
2017-08-04T00:59:42.062Z,1006.1
2017-08-04T01:00:22.569Z,1006.08
2017-08-04T01:01:03.108Z,1006.06
2017-08-04T01:01:43.651Z,1006.05
2017-08-04T01:02:24.187Z,1006.06
2017-08-04T01:03:04.723Z,1006.05
2017-08-04T01:03:45.253Z,1006.03
2017-08-04T01:04:25.792Z,1006
2017-08-04T01:05:06.342Z,1006.03
2017-08-04T01:05:46.861Z,1006.01
2017-08-04T01:06:27.404Z,1006
2017-08-04T01:07:07.941Z,1006.04
2017-08-04T01:07:48.465Z,1006
2017-08-04T01:08:29.009Z,1006.02
2017-08-04T01:09:09.544Z,1006.02
2017-08-04T01:09:50.072Z,1006.03
2017-08-04T01:10:30.661Z,1006.02
2017-08-04T01:11:11.189Z,1006.03
2017-08-04T01:11:51.727Z,1006.01
2017-08-04T01:12:32.258Z,1006.02
2017-08-04T01:13:12.799Z,1006.02
2017-08-04T01:13:53.327Z,1006.06
2017-08-04T01:14:33.867Z,1006.03
2017-08-04T01:15:14.401Z,1006
2017-08-04T01:15:54.939Z,1006.06
2017-08-04T01:16:35.479Z,1006
2017-08-04T01:17:16.019Z,1006
2017-08-04T01:17:56.560Z,1005.99
2017-08-04T01:18:37.102Z,1006.01
2017-08-04T01:19:17.642Z,1006.01
2017-08-04T01:19:58.171Z,1006.02
2017-08-04T01:20:38.732Z,1006.04
2017-08-04T01:21:19.248Z,1006.06
2017-08-04T01:21:59.786Z,1006.07
2017-08-04T01:22:40.324Z,1006.04
2017-08-04T01:23:20.863Z,1006.04
2017-08-04T01:24:01.396Z,1006.04
2017-08-04T01:24:41.932Z,1006.05
2017-08-04T01:25:22.459Z,1006.06
2017-08-04T01:26:02.993Z,1006.1
2017-08-04T01:26:43.531Z,1006.05
2017-08-04T01:27:24.069Z,1006.06
2017-08-04T01:28:04.609Z,1006.06
2017-08-04T01:28:45.141Z,1006.04
2017-08-04T01:29:25.669Z,1006.06
2017-08-04T01:30:06.203Z,1006.1
2017-08-04T01:30:46.742Z,1006.1
2017-08-04T01:31:27.270Z,1006.1
2017-08-04T01:32:07.813Z,1006.11
2017-08-04T01:32:48.348Z,1006.08
2017-08-04T01:33:28.886Z,1006.12
2017-08-04T01:34:09.432Z,1006.11
2017-08-04T01:34:49.961Z,1006.1
2017-08-04T01:35:30.500Z,1006.1
2017-08-04T01:36:11.036Z,1006.12
2017-08-04T01:36:51.572Z,1006.15
2017-08-04T01:37:32.116Z,1006.14
2017-08-04T01:38:12.651Z,1006.17
2017-08-04T01:38:53.175Z,1006.15
2017-08-04T01:39:33.721Z,1006.15
2017-08-04T01:40:14.259Z,1006.17
2017-08-04T01:40:54.801Z,1006.17
2017-08-04T01:41:35.342Z,1006.17
2017-08-04T01:42:15.880Z,1006.21
2017-08-04T01:42:56.413Z,1006.19
2017-08-04T01:43:36.941Z,1006.18
2017-08-04T01:44:17.475Z,1006.2
2017-08-04T01:44:58.002Z,1006.17
2017-08-04T01:45:38.542Z,1006.18
2017-08-04T01:46:19.085Z,1006.21
2017-08-04T01:46:59.641Z,1006.2
2017-08-04T01:47:40.178Z,1006.18
2017-08-04T01:48:20.714Z,1006.21
2017-08-04T01:49:01.245Z,1006.17
2017-08-04T01:49:41.782Z,1006.16
2017-08-04T01:50:22.317Z,1006.17
2017-08-04T01:51:05.852Z,1006.14
2017-08-04T01:51:46.392Z,1006.15
2017-08-04T01:52:26.931Z,1006.16
2017-08-04T01:53:07.470Z,1006.14
2017-08-04T01:53:48.010Z,1006.15
2017-08-04T01:54:28.549Z,1006.2
2017-08-04T01:55:09.079Z,1006.19
2017-08-04T01:55:49.619Z,1006.2
2017-08-04T01:56:30.157Z,1006.17
2017-08-04T01:57:10.691Z,1006.2
2017-08-04T01:57:51.238Z,1006.21
2017-08-04T01:58:31.776Z,1006.23
2017-08-04T01:59:12.317Z,1006.22
2017-08-04T01:59:52.858Z,1006.23
2017-08-04T02:00:33.406Z,1006.15
2017-08-04T02:01:13.955Z,1006.15
2017-08-04T02:01:54.472Z,1006.16
2017-08-04T02:02:35.011Z,1006.14
2017-08-04T02:03:15.537Z,1006.14
2017-08-04T02:03:56.081Z,1006.14
2017-08-04T02:04:36.626Z,1006.15
2017-08-04T02:05:17.139Z,1006.18
2017-08-04T02:05:57.700Z,1006.17
2017-08-04T02:06:38.238Z,1006.18
2017-08-04T02:07:18.776Z,1006.18
2017-08-04T02:07:59.318Z,1006.18
2017-08-04T02:08:39.848Z,1006.24
2017-08-04T02:09:20.386Z,1006.19
2017-08-04T02:10:00.919Z,1006.21
2017-08-04T02:10:41.447Z,1006.21
2017-08-04T02:11:21.981Z,1006.16
2017-08-04T02:12:02.529Z,1006.19
2017-08-04T02:12:43.049Z,1006.17
2017-08-04T02:13:23.590Z,1006.18
2017-08-04T02:14:04.129Z,1006.15
2017-08-04T02:14:44.659Z,1006.16
2017-08-04T02:15:25.194Z,1006.15
2017-08-04T02:16:05.734Z,1006.15
2017-08-04T02:16:46.324Z,1006.12
2017-08-04T02:17:26.804Z,1006.14
2017-08-04T02:18:07.344Z,1006.16
2017-08-04T02:18:47.871Z,1006.1
2017-08-04T02:19:28.400Z,1006.14
2017-08-04T02:20:08.943Z,1006.14
2017-08-04T02:20:49.461Z,1006.11
2017-08-04T02:21:29.990Z,1006.12
2017-08-04T02:22:10.520Z,1006.09
2017-08-04T02:22:51.060Z,1006.12
2017-08-04T02:23:31.590Z,1006.15
2017-08-04T02:24:12.128Z,1006.12
2017-08-04T02:24:52.661Z,1006.12
2017-08-04T02:25:33.196Z,1006.12
2017-08-04T02:26:13.737Z,1006.12
2017-08-04T02:26:54.270Z,1006.14
2017-08-04T02:27:34.780Z,1006.1
2017-08-04T02:28:15.318Z,1006.1
2017-08-04T02:28:55.846Z,1006.15
2017-08-04T02:29:36.380Z,1006.15
2017-08-04T02:30:16.906Z,1006.17
2017-08-04T02:30:57.437Z,1006.15
2017-08-04T02:31:37.971Z,1006.2
2017-08-04T02:32:18.507Z,1006.18
2017-08-04T02:32:59.045Z,1006.17
2017-08-04T02:33:39.582Z,1006.2
2017-08-04T02:34:20.115Z,1006.17
2017-08-04T02:35:00.654Z,1006.17
2017-08-04T02:35:41.193Z,1006.14
2017-08-04T02:36:21.717Z,1006.17
2017-08-04T02:37:02.256Z,1006.19
2017-08-04T02:37:42.789Z,1006.19
2017-08-04T02:38:23.317Z,1006.15
2017-08-04T02:39:03.861Z,1006.18
2017-08-04T02:39:44.392Z,1006.13
2017-08-04T02:40:24.927Z,1006.16
2017-08-04T02:41:05.469Z,1006.13
2017-08-04T02:41:46.010Z,1006.09
2017-08-04T02:42:26.552Z,1006.08
2017-08-04T02:43:07.093Z,1006.12
2017-08-04T02:43:47.621Z,1006.08
2017-08-04T02:44:28.159Z,1006.11
2017-08-04T02:45:08.680Z,1006.15
2017-08-04T02:45:49.208Z,1006.16
2017-08-04T02:46:29.741Z,1006.17
2017-08-04T02:47:10.274Z,1006.13
2017-08-04T02:47:50.814Z,1006.15
2017-08-04T02:48:31.360Z,1006.18
2017-08-04T02:49:11.888Z,1006.16
2017-08-04T02:49:52.427Z,1006.2
2017-08-04T02:50:32.958Z,1006.2
2017-08-04T02:51:13.481Z,1006.19
2017-08-04T02:51:54.020Z,1006.17
2017-08-04T02:52:34.552Z,1006.15
2017-08-04T02:53:15.080Z,1006.16
2017-08-04T02:53:55.618Z,1006.16
2017-08-04T02:54:36.161Z,1006.13
2017-08-04T02:55:16.700Z,1006.1
2017-08-04T02:55:57.226Z,1006.07
2017-08-04T02:56:37.754Z,1006.09
2017-08-04T02:57:18.295Z,1006.07
2017-08-04T02:57:58.837Z,1006.08
2017-08-04T02:58:39.374Z,1006.14
2017-08-04T02:59:19.907Z,1006.12
2017-08-04T03:00:00.433Z,1006.11
2017-08-04T03:00:40.974Z,1006.1
2017-08-04T03:01:21.507Z,1006.09
2017-08-04T03:02:02.051Z,1006.12
2017-08-04T03:02:42.590Z,1006.13
2017-08-04T03:03:23.126Z,1006.12
2017-08-04T03:04:03.668Z,1006.13
2017-08-04T03:04:44.207Z,1006.13
2017-08-04T03:05:24.748Z,1006.11
2017-08-04T03:06:05.286Z,1006.1
2017-08-04T03:06:45.829Z,1006.13
2017-08-04T03:07:26.363Z,1006.12
2017-08-04T03:08:06.906Z,1006.08
2017-08-04T03:08:47.442Z,1006.1
2017-08-04T03:09:27.983Z,1006.16
2017-08-04T03:10:08.525Z,1006.14
2017-08-04T03:10:49.066Z,1006.19
2017-08-04T03:11:29.587Z,1006.17
2017-08-04T03:12:10.121Z,1006.2
2017-08-04T03:12:50.660Z,1006.19
2017-08-04T03:13:31.196Z,1006.18
2017-08-04T03:14:11.736Z,1006.2
2017-08-04T03:14:52.274Z,1006.18
2017-08-04T03:15:32.814Z,1006.22
2017-08-04T03:16:13.346Z,1006.21
2017-08-04T03:16:53.873Z,1006.25
2017-08-04T03:17:34.414Z,1006.26
2017-08-04T03:18:14.952Z,1006.27
2017-08-04T03:18:55.483Z,1006.24
2017-08-04T03:19:36.019Z,1006.26
2017-08-04T03:20:16.536Z,1006.26
2017-08-04T03:20:57.064Z,1006.22
2017-08-04T03:21:37.603Z,1006.28
2017-08-04T03:22:18.143Z,1006.25
2017-08-04T03:22:58.684Z,1006.26
2017-08-04T03:23:39.219Z,1006.27
2017-08-04T03:24:19.772Z,1006.32
2017-08-04T03:25:00.277Z,1006.29
2017-08-04T03:25:40.800Z,1006.3
2017-08-04T03:26:21.336Z,1006.3
2017-08-04T03:27:01.879Z,1006.26
2017-08-04T03:27:42.416Z,1006.29
2017-08-04T03:28:22.953Z,1006.29
2017-08-04T03:29:03.487Z,1006.27
2017-08-04T03:29:44.030Z,1006.27
2017-08-04T03:30:24.564Z,1006.25
2017-08-04T03:31:05.105Z,1006.24
2017-08-04T03:31:45.641Z,1006.25
2017-08-04T03:32:26.174Z,1006.26
2017-08-04T03:33:06.712Z,1006.25
2017-08-04T03:33:47.256Z,1006.24
2017-08-04T03:34:27.788Z,1006.26
2017-08-04T03:35:08.316Z,1006.27
2017-08-04T03:35:48.856Z,1006.28
2017-08-04T03:36:29.397Z,1006.3
2017-08-04T03:37:09.944Z,1006.29
2017-08-04T03:37:50.487Z,1006.32
2017-08-04T03:38:31.029Z,1006.3
2017-08-04T03:39:11.562Z,1006.31
2017-08-04T03:39:52.090Z,1006.34
2017-08-04T03:40:32.628Z,1006.29
2017-08-04T03:41:13.173Z,1006.31
2017-08-04T03:41:53.705Z,1006.32
2017-08-04T03:42:34.241Z,1006.3
2017-08-04T03:43:14.781Z,1006.3
2017-08-04T03:43:55.312Z,1006.29
2017-08-04T03:44:35.837Z,1006.29
2017-08-04T03:45:16.380Z,1006.28
2017-08-04T03:45:56.926Z,1006.29
2017-08-04T03:46:37.462Z,1006.25
2017-08-04T03:47:17.996Z,1006.3
2017-08-04T03:47:58.529Z,1006.27
2017-08-04T03:48:39.066Z,1006.32
2017-08-04T03:49:19.602Z,1006.33
2017-08-04T03:50:00.162Z,1006.32
2017-08-04T03:50:40.675Z,1006.3
2017-08-04T03:51:21.218Z,1006.32
2017-08-04T03:52:01.757Z,1006.27
2017-08-04T03:52:42.292Z,1006.29
2017-08-04T03:53:22.830Z,1006.29
2017-08-04T03:54:03.357Z,1006.33
2017-08-04T03:54:43.893Z,1006.34
2017-08-04T03:55:24.436Z,1006.33
2017-08-04T03:56:04.981Z,1006.35
2017-08-04T03:56:45.520Z,1006.35
2017-08-04T03:57:26.078Z,1006.34
2017-08-04T03:58:06.616Z,1006.34
2017-08-04T03:58:47.143Z,1006.31
2017-08-04T03:59:27.680Z,1006.32
2017-08-04T04:00:08.215Z,1006.33
2017-08-04T04:00:48.756Z,1006.33
2017-08-04T04:01:29.291Z,1006.33
2017-08-04T04:02:09.816Z,1006.31
2017-08-04T04:02:50.344Z,1006.33
2017-08-04T04:03:30.879Z,1006.35
2017-08-04T04:04:11.411Z,1006.35
2017-08-04T04:04:51.951Z,1006.31
2017-08-04T04:05:32.490Z,1006.34
2017-08-04T04:06:13.010Z,1006.33
2017-08-04T04:06:53.532Z,1006.34
2017-08-04T04:07:34.073Z,1006.33
2017-08-04T04:08:14.603Z,1006.33
2017-08-04T04:08:55.148Z,1006.36
2017-08-04T04:09:35.681Z,1006.37
2017-08-04T04:10:16.223Z,1006.37
2017-08-04T04:10:56.764Z,1006.41
2017-08-04T04:11:37.298Z,1006.41
2017-08-04T04:12:17.837Z,1006.39
2017-08-04T04:12:58.370Z,1006.43
2017-08-04T04:13:38.909Z,1006.44
2017-08-04T04:14:19.435Z,1006.45
2017-08-04T04:14:59.975Z,1006.47
2017-08-04T04:15:40.516Z,1006.48
2017-08-04T04:16:21.061Z,1006.45
2017-08-04T04:17:01.593Z,1006.46
2017-08-04T04:17:42.139Z,1006.4
2017-08-04T04:18:22.674Z,1006.41
2017-08-04T04:19:03.225Z,1006.43
2017-08-04T04:19:43.752Z,1006.42
2017-08-04T04:20:24.298Z,1006.4
2017-08-04T04:21:04.834Z,1006.41
2017-08-04T04:21:45.376Z,1006.43
2017-08-04T04:22:25.924Z,1006.41
2017-08-04T04:23:06.450Z,1006.45
2017-08-04T04:23:46.991Z,1006.43
2017-08-04T04:24:27.528Z,1006.44
2017-08-04T04:25:08.059Z,1006.41
2017-08-04T04:25:48.597Z,1006.43
2017-08-04T04:26:29.137Z,1006.47
2017-08-04T04:27:09.666Z,1006.43
2017-08-04T04:27:50.204Z,1006.46
2017-08-04T04:28:30.736Z,1006.46
2017-08-04T04:29:11.273Z,1006.47
2017-08-04T04:29:51.811Z,1006.46
2017-08-04T04:30:32.347Z,1006.46
2017-08-04T04:31:12.884Z,1006.45
2017-08-04T04:31:53.417Z,1006.44
2017-08-04T04:32:33.953Z,1006.43
2017-08-04T04:33:14.534Z,1006.42
2017-08-04T04:33:55.060Z,1006.41
2017-08-04T04:34:35.646Z,1006.44
2017-08-04T04:35:16.187Z,1006.46
2017-08-04T04:35:56.725Z,1006.42
2017-08-04T04:36:37.242Z,1006.41
2017-08-04T04:37:17.782Z,1006.42
2017-08-04T04:37:58.324Z,1006.43
2017-08-04T04:38:38.863Z,1006.39
2017-08-04T04:39:19.400Z,1006.43
2017-08-04T04:39:59.934Z,1006.42
2017-08-04T04:40:40.456Z,1006.43
2017-08-04T04:41:21.005Z,1006.43
2017-08-04T04:42:01.546Z,1006.43
2017-08-04T04:42:42.088Z,1006.46
2017-08-04T04:43:22.625Z,1006.47
2017-08-04T04:44:03.164Z,1006.47
2017-08-04T04:44:43.695Z,1006.45
2017-08-04T04:45:24.233Z,1006.47
2017-08-04T04:46:04.757Z,1006.49
2017-08-04T04:46:45.291Z,1006.46
2017-08-04T04:47:25.817Z,1006.46
2017-08-04T04:48:06.357Z,1006.5
2017-08-04T04:48:46.900Z,1006.49
2017-08-04T04:49:27.425Z,1006.49
2017-08-04T04:50:07.964Z,1006.5
2017-08-04T04:50:48.503Z,1006.52
2017-08-04T04:51:29.037Z,1006.49
2017-08-04T04:52:09.575Z,1006.48
2017-08-04T04:52:50.104Z,1006.49
2017-08-04T04:53:30.633Z,1006.49
2017-08-04T04:54:11.159Z,1006.53
2017-08-04T04:54:51.692Z,1006.54
2017-08-04T04:55:32.234Z,1006.51
2017-08-04T04:56:12.777Z,1006.5
2017-08-04T04:56:53.312Z,1006.52
2017-08-04T04:57:33.856Z,1006.48
2017-08-04T04:58:14.393Z,1006.49
2017-08-04T04:58:54.932Z,1006.49
2017-08-04T04:59:35.450Z,1006.49
2017-08-04T05:00:15.990Z,1006.49
2017-08-04T05:00:56.533Z,1006.48
2017-08-04T05:01:37.069Z,1006.42
2017-08-04T05:02:17.610Z,1006.42
2017-08-04T05:02:58.150Z,1006.46
2017-08-04T05:03:38.686Z,1006.38
2017-08-04T05:04:19.232Z,1006.38
2017-08-04T05:04:59.758Z,1006.42
2017-08-04T05:05:40.302Z,1006.38
2017-08-04T05:06:20.848Z,1006.34
2017-08-04T05:07:01.426Z,1006.32
2017-08-04T05:07:41.900Z,1006.31
2017-08-04T05:08:22.432Z,1006.33
2017-08-04T05:09:02.970Z,1006.36
2017-08-04T05:09:43.508Z,1006.38
2017-08-04T05:10:24.051Z,1006.37
2017-08-04T05:11:04.597Z,1006.39
2017-08-04T05:11:45.139Z,1006.37
2017-08-04T05:12:25.681Z,1006.36
2017-08-04T05:13:06.225Z,1006.38
2017-08-04T05:13:46.768Z,1006.33
2017-08-04T05:14:27.308Z,1006.34
2017-08-04T05:15:07.845Z,1006.32
2017-08-04T05:15:48.373Z,1006.28
2017-08-04T05:16:28.916Z,1006.32
2017-08-04T05:17:09.456Z,1006.26
2017-08-04T05:17:49.991Z,1006.28
2017-08-04T05:18:30.533Z,1006.26
2017-08-04T05:19:11.074Z,1006.31
2017-08-04T05:19:51.597Z,1006.29
2017-08-04T05:20:32.132Z,1006.3
2017-08-04T05:21:12.668Z,1006.28
2017-08-04T05:21:53.207Z,1006.36
2017-08-04T05:22:33.738Z,1006.38
2017-08-04T05:23:14.279Z,1006.34
2017-08-04T05:23:54.811Z,1006.36
2017-08-04T05:24:35.355Z,1006.4
2017-08-04T05:25:15.881Z,1006.4
2017-08-04T05:25:56.417Z,1006.41
2017-08-04T05:26:36.962Z,1006.37
2017-08-04T05:27:17.504Z,1006.41
2017-08-04T05:27:58.045Z,1006.36
2017-08-04T05:28:38.585Z,1006.39
2017-08-04T05:29:19.129Z,1006.39
2017-08-04T05:29:59.662Z,1006.35
2017-08-04T05:30:40.207Z,1006.31
2017-08-04T05:31:20.741Z,1006.32
2017-08-04T05:32:01.330Z,1006.3
2017-08-04T05:32:41.868Z,1006.35
2017-08-04T05:33:22.406Z,1006.32
2017-08-04T05:34:02.944Z,1006.36
2017-08-04T05:34:43.485Z,1006.37
2017-08-04T05:35:24.024Z,1006.43
2017-08-04T05:36:04.559Z,1006.43
2017-08-04T05:36:45.100Z,1006.43
2017-08-04T05:37:25.639Z,1006.41
2017-08-04T05:38:06.180Z,1006.42
2017-08-04T05:38:46.718Z,1006.36
2017-08-04T05:39:27.247Z,1006.41
2017-08-04T05:40:07.786Z,1006.47
2017-08-04T05:40:48.326Z,1006.47
2017-08-04T05:41:28.866Z,1006.49
2017-08-04T05:42:09.407Z,1006.51
2017-08-04T05:42:49.941Z,1006.53
2017-08-04T05:43:30.471Z,1006.56
2017-08-04T05:44:11.003Z,1006.54
2017-08-04T05:44:51.539Z,1006.56
2017-08-04T05:45:32.080Z,1006.54
2017-08-04T05:46:12.623Z,1006.55
2017-08-04T05:46:53.159Z,1006.55
2017-08-04T05:47:33.692Z,1006.53
2017-08-04T05:48:14.232Z,1006.54
2017-08-04T05:48:54.773Z,1006.55
2017-08-04T05:49:35.309Z,1006.55
2017-08-04T05:50:15.860Z,1006.6
2017-08-04T05:50:56.375Z,1006.64
2017-08-04T05:51:36.914Z,1006.64
2017-08-04T05:52:17.455Z,1006.65
2017-08-04T05:52:57.992Z,1006.64
2017-08-04T05:53:38.530Z,1006.65
2017-08-04T05:54:19.071Z,1006.68
2017-08-04T05:54:59.610Z,1006.69
2017-08-04T05:55:40.151Z,1006.66
2017-08-04T05:56:20.689Z,1006.71
2017-08-04T05:57:01.235Z,1006.68
2017-08-04T05:57:41.772Z,1006.73
2017-08-04T05:58:22.314Z,1006.71
2017-08-04T05:59:02.852Z,1006.73
2017-08-04T05:59:43.386Z,1006.76
2017-08-04T06:00:23.926Z,1006.73
2017-08-04T06:01:04.491Z,1006.74
2017-08-04T06:01:45.049Z,1006.74
2017-08-04T06:02:25.585Z,1006.77
2017-08-04T06:03:06.123Z,1006.74
2017-08-04T06:03:46.655Z,1006.78
2017-08-04T06:04:27.201Z,1006.8
2017-08-04T06:05:07.734Z,1006.76
2017-08-04T06:05:48.281Z,1006.76
2017-08-04T06:06:28.822Z,1006.76
2017-08-04T06:07:09.367Z,1006.74
2017-08-04T06:07:49.914Z,1006.74
2017-08-04T06:08:30.424Z,1006.74
2017-08-04T06:09:10.964Z,1006.72
2017-08-04T06:09:51.505Z,1006.7
2017-08-04T06:10:32.042Z,1006.76
2017-08-04T06:11:12.587Z,1006.76
2017-08-04T06:11:53.115Z,1006.8
2017-08-04T06:12:33.661Z,1006.75
2017-08-04T06:13:14.189Z,1006.81
2017-08-04T06:13:54.732Z,1006.8
2017-08-04T06:14:35.281Z,1006.8
2017-08-04T06:15:15.795Z,1006.81
2017-08-04T06:15:56.335Z,1006.82
2017-08-04T06:16:36.878Z,1006.8
2017-08-04T06:17:17.402Z,1006.79
2017-08-04T06:17:57.934Z,1006.76
2017-08-04T06:18:38.470Z,1006.8
2017-08-04T06:19:19.015Z,1006.76
2017-08-04T06:19:59.554Z,1006.75
2017-08-04T06:20:40.103Z,1006.76
2017-08-04T06:21:20.687Z,1006.76
2017-08-04T06:22:01.231Z,1006.77
2017-08-04T06:22:41.758Z,1006.78
2017-08-04T06:23:22.301Z,1006.75
2017-08-04T06:24:02.844Z,1006.72
2017-08-04T06:24:43.393Z,1006.71
2017-08-04T06:25:23.911Z,1006.66
2017-08-04T06:26:04.464Z,1006.67
2017-08-04T06:26:44.976Z,1006.63
2017-08-04T06:27:25.521Z,1006.65
2017-08-04T06:28:06.060Z,1006.66
2017-08-04T06:28:46.599Z,1006.66
2017-08-04T06:29:27.129Z,1006.68
2017-08-04T06:30:07.669Z,1006.69
2017-08-04T06:30:48.195Z,1006.7
2017-08-04T06:31:28.738Z,1006.73
2017-08-04T06:32:09.278Z,1006.72
2017-08-04T06:32:49.814Z,1006.69
2017-08-04T06:33:30.354Z,1006.67
2017-08-04T06:34:10.896Z,1006.63
2017-08-04T06:34:51.429Z,1006.61
2017-08-04T06:35:31.968Z,1006.62
2017-08-04T06:36:12.503Z,1006.66
2017-08-04T06:36:53.038Z,1006.62
2017-08-04T06:37:33.583Z,1006.65
2017-08-04T06:38:14.123Z,1006.64
2017-08-04T06:38:54.659Z,1006.66
2017-08-04T06:39:35.195Z,1006.66
2017-08-04T06:40:15.716Z,1006.71
2017-08-04T06:40:56.259Z,1006.71
2017-08-04T06:41:36.795Z,1006.76
2017-08-04T06:42:17.336Z,1006.82
2017-08-04T06:42:57.876Z,1006.78
2017-08-04T06:43:38.412Z,1006.79
2017-08-04T06:44:18.953Z,1006.81
2017-08-04T06:44:59.485Z,1006.85
2017-08-04T06:45:40.020Z,1006.83
2017-08-04T06:46:20.554Z,1006.83
2017-08-04T06:47:01.072Z,1006.85
2017-08-04T06:47:41.614Z,1006.9
2017-08-04T06:48:22.195Z,1006.97
2017-08-04T06:49:02.731Z,1006.97
2017-08-04T06:49:43.277Z,1006.99
2017-08-04T06:50:23.818Z,1007.02
2017-08-04T06:51:04.361Z,1007.07
2017-08-04T06:51:44.882Z,1007.03
2017-08-04T06:52:25.414Z,1007.04
2017-08-04T06:53:05.946Z,1007.05
2017-08-04T06:53:46.487Z,1007.08
2017-08-04T06:54:27.014Z,1007.14
2017-08-04T06:55:07.562Z,1007.1
2017-08-04T06:55:48.088Z,1007.09
2017-08-04T06:56:28.624Z,1007.09
2017-08-04T06:57:09.169Z,1007.07
2017-08-04T06:57:49.712Z,1007.11
2017-08-04T06:58:30.253Z,1007.15
2017-08-04T06:59:10.801Z,1007.22
2017-08-04T06:59:51.338Z,1007.2
2017-08-04T07:00:31.876Z,1007.26
2017-08-04T07:01:12.394Z,1007.25
2017-08-04T07:01:52.924Z,1007.23
2017-08-04T07:02:33.476Z,1007.2
2017-08-04T07:03:14.015Z,1007.21
2017-08-04T07:03:54.552Z,1007.18
2017-08-04T07:04:35.099Z,1007.19
2017-08-04T07:05:15.644Z,1007.18
2017-08-04T07:05:56.259Z,1007.19
2017-08-04T07:06:36.793Z,1007.18
2017-08-04T07:07:17.329Z,1007.18
2017-08-04T07:07:57.872Z,1007.21
2017-08-04T07:08:38.409Z,1007.22
2017-08-04T07:09:18.951Z,1007.22
2017-08-04T07:09:59.488Z,1007.19
2017-08-04T07:10:40.031Z,1007.19
2017-08-04T07:11:20.561Z,1007.19
2017-08-04T07:12:01.096Z,1007.25
2017-08-04T07:12:41.636Z,1007.24
2017-08-04T07:13:22.176Z,1007.24
2017-08-04T07:14:02.721Z,1007.25
2017-08-04T07:14:43.249Z,1007.27
2017-08-04T07:15:23.831Z,1007.28
2017-08-04T07:16:04.367Z,1007.3
2017-08-04T07:16:44.896Z,1007.3
2017-08-04T07:17:25.438Z,1007.35
2017-08-04T07:18:05.973Z,1007.29
2017-08-04T07:18:46.512Z,1007.28
2017-08-04T07:19:27.055Z,1007.3
2017-08-04T07:20:07.600Z,1007.27
2017-08-04T07:20:48.145Z,1007.23
2017-08-04T07:21:28.683Z,1007.19
2017-08-04T07:22:09.224Z,1007.18
2017-08-04T07:22:49.758Z,1007.17
2017-08-04T07:23:30.304Z,1007.17
2017-08-04T07:24:10.834Z,1007.19
2017-08-04T07:24:51.372Z,1007.21
2017-08-04T07:25:31.918Z,1007.25
2017-08-04T07:26:12.459Z,1007.24
2017-08-04T07:26:53.000Z,1007.17
2017-08-04T07:27:33.537Z,1007.21
2017-08-04T07:28:14.079Z,1007.19
2017-08-04T07:28:54.618Z,1007.13
2017-08-04T07:29:35.164Z,1007.09
2017-08-04T07:30:15.685Z,1007.13
2017-08-04T07:30:56.222Z,1007.12
2017-08-04T07:31:36.758Z,1007.11
2017-08-04T07:32:17.305Z,1007.21
2017-08-04T07:32:57.843Z,1007.19
2017-08-04T07:33:38.390Z,1007.21
2017-08-04T07:34:18.923Z,1007.21
2017-08-04T07:34:59.463Z,1007.22
2017-08-04T07:35:40.040Z,1007.21
2017-08-04T07:36:20.579Z,1007.2
2017-08-04T07:37:01.116Z,1007.26
2017-08-04T07:37:41.657Z,1007.25
2017-08-04T07:38:22.187Z,1007.18
2017-08-04T07:39:02.732Z,1007.2
2017-08-04T07:39:43.281Z,1007.21
2017-08-04T07:40:23.815Z,1007.22
2017-08-04T07:41:04.383Z,1007.22
2017-08-04T07:41:44.921Z,1007.19
2017-08-04T07:42:25.465Z,1007.16
2017-08-04T07:43:06.009Z,1007.2
2017-08-04T07:43:46.546Z,1007.2
2017-08-04T07:44:27.086Z,1007.19
2017-08-04T07:45:07.627Z,1007.22
2017-08-04T07:45:48.164Z,1007.2
2017-08-04T07:46:28.703Z,1007.22
2017-08-04T07:47:09.240Z,1007.19
2017-08-04T07:47:49.770Z,1007.22
2017-08-04T07:48:30.306Z,1007.18
2017-08-04T07:49:10.836Z,1007.21
2017-08-04T07:49:51.377Z,1007.22
2017-08-04T07:50:31.915Z,1007.24
2017-08-04T07:51:12.455Z,1007.27
2017-08-04T07:51:52.996Z,1007.23
2017-08-04T07:52:33.535Z,1007.28
2017-08-04T07:53:14.073Z,1007.22
2017-08-04T07:53:54.609Z,1007.24
2017-08-04T07:54:35.154Z,1007.25
2017-08-04T07:55:15.695Z,1007.2
2017-08-04T07:55:56.240Z,1007.26
2017-08-04T07:56:36.778Z,1007.27
2017-08-04T07:57:17.322Z,1007.28
2017-08-04T07:57:57.867Z,1007.3
2017-08-04T07:58:38.403Z,1007.29
2017-08-04T07:59:18.942Z,1007.29
2017-08-04T07:59:59.481Z,1007.32
2017-08-04T08:00:40.025Z,1007.34
2017-08-04T08:01:20.571Z,1007.31
2017-08-04T08:02:01.112Z,1007.29
2017-08-04T08:02:41.661Z,1007.29
2017-08-04T08:03:22.202Z,1007.27
2017-08-04T08:04:02.750Z,1007.29
2017-08-04T08:04:43.293Z,1007.26
2017-08-04T08:05:23.817Z,1007.24
2017-08-04T08:06:04.357Z,1007.26
2017-08-04T08:06:44.891Z,1007.28
2017-08-04T08:07:25.437Z,1007.25
2017-08-04T08:08:05.956Z,1007.22
2017-08-04T08:08:46.477Z,1007.23
2017-08-04T08:09:27.038Z,1007.25
2017-08-04T08:10:07.584Z,1007.26
2017-08-04T08:10:48.131Z,1007.2
2017-08-04T08:11:28.672Z,1007.2
2017-08-04T08:12:09.208Z,1007.2
2017-08-04T08:12:49.744Z,1007.22
2017-08-04T08:13:30.285Z,1007.2